Time;durP1;ratioP1;P1;durP2;ratioP2;P2;SDS_P1;SDS_P2;PMS_P1;PMS_P2;Temp;Humidity;BMP_temperature;BMP_pressure;BME280_temperature;BME280_humidity;BME280_pressure;Samples;Min_cycle;Max_cycle;Signal;HPM_P1;HPM_P2
2024/01/13 12:27:17;;;;;;;15.30;5.87;;;;;;;7.41;37.02;99252.97;6175964;23;20334;-94
2024/01/13 12:29:42;;;;;;;12.43;6.27;;;;;;;7.25;37.69;99248.38;6161302;23;20186;-91
2024/01/13 12:32:09;;;;;;;12.53;5.33;;;;;;;7.48;37.52;99250.97;6186106;23;20220;-92
2024/01/13 12:34:35;;;;;;;15.03;7.23;;;;;;;6.99;37.34;99244.16;6161025;23;20149;-92
2024/01/13 12:37:03;;;;;;;9.87;4.83;;;;;;;7.32;37.07;99245.50;6187020;23;20151;-93
2024/01/13 12:39:29;;;;;;;17.07;6.63;;;;;;;7.26;37.45;99239.66;6162306;23;20224;-93
2024/01/13 12:41:55;;;;;;;12.23;5.20;;;;;;;7.18;36.90;99241.72;6161111;23;20238;-92
2024/01/13 12:44:27;;;;;;;15.27;5.93;;;;;;;7.48;36.88;99244.91;6160921;23;20577;-93
2024/01/13 12:46:56;;;;;;;16.90;6.73;;;;;;;7.31;37.46;99238.56;6161223;23;20163;-92
2024/01/13 12:49:22;;;;;;;12.30;7.00;;;;;;;7.51;36.30;99240.44;6160904;23;20178;-93
2024/01/13 12:51:51;;;;;;;13.30;6.90;;;;;;;7.65;37.06;99240.72;6186869;23;20150;-92
2024/01/13 12:54:19;;;;;;;15.37;6.50;;;;;;;7.74;37.52;99229.94;6160968;23;20154;-93
2024/01/13 12:56:49;;;;;;;16.40;5.97;;;;;;;7.73;37.03;99236.06;6160768;23;20174;-92
2024/01/13 12:59:19;;;;;;;15.10;6.03;;;;;;;8.10;36.82;99230.22;6161682;23;20174;-91
2024/01/13 13:01:44;;;;;;;15.00;5.70;;;;;;;8.05;35.75;99238.25;6160790;23;20269;-92
2024/01/13 13:04:10;;;;;;;21.90;7.10;;;;;;;8.07;35.97;99238.16;6160804;23;20174;-92
2024/01/13 13:06:36;;;;;;;17.30;7.03;;;;;;;8.23;35.81;99236.63;6186757;23;20217;-92
2024/01/13 13:09:03;;;;;;;15.83;6.53;;;;;;;8.32;35.11;99232.81;6160660;23;20194;-92
2024/01/13 13:11:29;;;;;;;15.33;6.33;;;;;;;8.30;36.13;99229.44;6186643;23;20166;-92
2024/01/13 13:13:54;;;;;;;13.90;6.57;;;;;;;8.05;35.83;99242.59;6160690;23;20346;-93
2024/01/13 13:16:20;;;;;;;15.03;6.83;;;;;;;8.11;36.52;99241.50;6186778;23;20498;-92
2024/01/13 13:18:48;;;;;;;13.53;5.93;;;;;;;7.90;36.38;99233.66;6160356;23;20624;-93
2024/01/13 13:21:13;;;;;;;13.00;5.73;;;;;;;7.89;36.35;99236.28;6160557;23;20230;-93
2024/01/13 13:23:39;;;;;;;13.47;6.10;;;;;;;7.77;36.96;99236.81;6159029;23;20186;-93
2024/01/13 13:26:05;;;;;;;12.23;5.13;;;;;;;7.68;36.21;99234.56;6160534;23;20156;-94
2024/01/13 13:28:31;;;;;;;14.53;6.17;;;;;;;7.65;37.18;99232.91;6186758;23;20194;-92
2024/01/13 13:30:56;;;;;;;12.23;5.67;;;;;;;7.56;37.41;99235.88;6161763;23;20152;-92
2024/01/13 13:33:22;;;;;;;13.43;5.77;;;;;;;7.61;36.84;99233.94;6160636;23;20249;-93
2024/01/13 13:35:49;;;;;;;15.43;6.43;;;;;;;7.68;37.04;99224.97;6160423;23;20162;-93
2024/01/13 13:38:15;;;;;;;16.03;6.47;;;;;;;7.78;37.29;99222.84;6160307;23;20241;-92
2024/01/13 13:40:41;;;;;;;14.37;6.40;;;;;;;7.49;37.48;99231.81;6160925;23;20237;-92
2024/01/13 13:43:07;;;;;;;13.13;6.00;;;;;;;7.75;37.22;99229.03;6160371;23;20217;-93
2024/01/13 13:45:35;;;;;;;12.20;5.47;;;;;;;8.03;36.34;99224.41;6160398;23;20597;-94
2024/01/13 13:48:01;;;;;;;17.40;6.70;;;;;;;7.90;36.59;99220.59;6160709;23;20236;-94
2024/01/13 13:50:30;;;;;;;12.03;5.70;;;;;;;7.93;36.06;99214.41;6160698;23;20574;-92
2024/01/13 13:52:56;;;;;;;10.63;6.40;;;;;;;7.37;36.85;99234.88;6160871;23;20467;-92
2024/01/13 13:55:23;;;;;;;17.10;6.27;;;;;;;7.54;36.82;99232.50;6159829;23;20402;-93
2024/01/13 13:57:49;;;;;;;10.53;5.67;;;;;;;7.60;36.70;99244.44;6160069;23;20174;-92
2024/01/13 14:00:14;;;;;;;12.13;5.77;;;;;;;7.72;36.08;99225.69;6160218;23;20165;-92
2024/01/13 14:02:40;;;;;;;14.23;5.33;;;;;;;7.53;36.75;99237.75;6160114;23;20166;-92
2024/01/13 14:05:05;;;;;;;16.90;6.13;;;;;;;7.63;36.86;99231.25;6160183;23;20155;-91
2024/01/13 14:07:31;;;;;;;14.60;5.97;;;;;;;7.99;36.54;99228.03;6160064;23;20508;-93
2024/01/13 14:09:57;;;;;;;12.30;6.37;;;;;;;7.95;35.76;99223.00;6160265;23;20156;-93
2024/01/13 14:12:23;;;;;;;12.83;5.57;;;;;;;7.49;36.56;99233.56;6160881;23;20154;-92
2024/01/13 14:14:48;;;;;;;12.10;5.57;;;;;;;7.43;36.44;99226.84;6186193;23;20230;-92
2024/01/13 14:17:13;;;;;;;10.07;4.57;;;;;;;7.35;36.25;99224.53;6160332;23;20154;-93
2024/01/13 14:19:39;;;;;;;11.57;5.27;;;;;;;7.36;36.83;99236.63;6160086;23;20169;-92
2024/01/13 14:22:04;;;;;;;14.73;5.87;;;;;;;7.63;36.76;99231.25;6160235;23;20229;-92
2024/01/13 14:24:30;;;;;;;15.47;6.30;;;;;;;7.65;36.52;99227.69;6159773;23;20590;-93
2024/01/13 14:26:56;;;;;;;14.50;5.20;;;;;;;7.68;36.73;99221.53;6160052;23;20198;-93
2024/01/13 14:29:21;;;;;;;14.73;6.60;;;;;;;7.21;37.05;99232.00;6160269;23;20157;-92
2024/01/13 14:31:47;;;;;;;11.87;5.73;;;;;;;7.01;37.94;99233.66;6185808;23;20221;-92
2024/01/13 14:34:12;;;;;;;12.33;6.20;;;;;;;6.99;38.08;99228.50;6159953;23;20235;-94
2024/01/13 14:36:37;;;;;;;14.93;5.40;;;;;;;7.12;37.71;99228.91;6160021;23;20156;-92
2024/01/13 14:39:03;;;;;;;12.47;5.60;;;;;;;7.07;37.79;99236.03;6186170;23;20174;-91
2024/01/13 14:41:29;;;;;;;12.83;5.83;;;;;;;6.87;37.92;99243.72;6184641;23;20497;-92
2024/01/13 14:43:55;;;;;;;15.37;5.67;;;;;;;7.04;37.93;99234.41;6185381;23;20582;-91
2024/01/13 14:46:20;;;;;;;12.73;5.50;;;;;;;7.39;36.99;99231.31;6184295;23;20582;-91
2024/01/13 14:48:46;;;;;;;9.93;5.00;;;;;;;7.06;37.64;99236.94;6185714;23;20146;-92
2024/01/13 14:51:11;;;;;;;9.03;4.77;;;;;;;7.19;37.19;99235.56;6185742;23;20158;-91
2024/01/13 14:53:37;;;;;;;12.10;6.13;;;;;;;7.18;37.33;99242.53;6159881;23;20170;-91
2024/01/13 14:56:05;;;;;;;16.87;6.67;;;;;;;7.22;37.42;99235.47;6159717;23;20540;-91
2024/01/13 14:58:30;;;;;;;12.83;5.40;;;;;;;7.27;37.53;99231.78;6185593;23;20217;-91
2024/01/13 15:00:56;;;;;;;15.73;6.87;;;;;;;7.19;36.99;99228.63;6159744;23;20151;-91
2024/01/13 15:03:21;;;;;;;15.50;6.30;;;;;;;7.11;36.86;99230.66;6159671;23;20701;-92
2024/01/13 15:05:47;;;;;;;20.73;7.37;;;;;;;7.15;37.39;99231.41;6159228;23;20705;-92
2024/01/13 15:08:12;;;;;;;17.10;7.03;;;;;;;7.21;37.78;99231.16;6185620;23;20277;-91
2024/01/13 15:10:37;;;;;;;12.47;6.60;;;;;;;7.24;37.41;99231.91;6159847;23;20159;-92
2024/01/13 15:13:04;;;;;;;15.73;6.77;;;;;;;7.16;37.73;99233.06;6159707;23;20169;-91
2024/01/13 15:15:29;;;;;;;24.17;8.47;;;;;;;7.16;37.42;99235.69;6159551;23;20154;-91
2024/01/13 15:17:55;;;;;;;23.03;8.50;;;;;;;7.12;37.29;99232.38;6159889;23;20610;-88
2024/01/13 15:20:20;;;;;;;17.73;7.67;;;;;;;7.04;37.89;99229.19;6185356;23;20471;-88
2024/01/13 15:22:45;;;;;;;25.60;9.33;;;;;;;7.15;37.99;99236.63;6185509;23;20586;-90
2024/01/13 15:25:14;;;;;;;23.40;9.07;;;;;;;7.13;37.05;99235.78;6185002;23;20591;-91
2024/01/13 15:27:39;;;;;;;22.57;8.57;;;;;;;7.14;37.42;99238.38;6185127;23;20162;-91
2024/01/13 15:30:07;;;;;;;20.03;9.40;;;;;;;7.15;37.53;99231.41;6185206;23;20483;-91
2024/01/13 15:32:33;;;;;;;18.90;7.90;;;;;;;7.11;37.57;99235.00;6185436;23;20530;-91
2024/01/13 15:34:58;;;;;;;27.97;10.57;;;;;;;7.13;38.02;99236.66;6159280;23;20158;-90
2024/01/13 15:37:24;;;;;;;75.87;31.40;;;;;;;7.10;37.28;99236.75;6159380;23;20220;-90
2024/01/13 15:39:49;;;;;;;56.23;22.37;;;;;;;7.07;38.25;99238.66;6185271;23;20238;-91
2024/01/13 15:42:15;;;;;;;48.20;21.60;;;;;;;6.90;38.47;99241.00;6159369;23;20168;-90
2024/01/13 15:44:41;;;;;;;30.93;14.03;;;;;;;6.61;38.76;99245.50;6185663;23;20231;-90
2024/01/13 15:47:06;;;;;;;27.23;12.33;;;;;;;6.33;39.74;99244.75;6185245;23;20146;-90
2024/01/13 15:49:32;;;;;;;21.70;11.70;;;;;;;6.18;39.29;99246.09;6185234;23;20147;-90
2024/01/13 15:51:58;;;;;;;27.53;12.70;;;;;;;6.13;39.50;99241.97;6185618;23;20150;-90
2024/01/13 15:54:23;;;;;;;43.20;16.43;;;;;;;6.07;40.05;99252.56;6158728;23;20548;-90
2024/01/13 15:56:49;;;;;;;30.77;13.07;;;;;;;6.08;40.22;99256.84;6161027;23;20166;-91
2024/01/13 15:59:15;;;;;;;34.00;13.33;;;;;;;6.14;40.49;99269.66;6160729;23;20248;-90
2024/01/13 16:01:40;;;;;;;31.07;11.73;;;;;;;6.10;40.09;99268.09;6187934;23;20178;-90
2024/01/13 16:04:06;;;;;;;30.77;11.53;;;;;;;6.03;40.84;99259.59;6160952;23;20164;-91
2024/01/13 16:06:32;;;;;;;27.13;12.83;;;;;;;6.08;40.79;99259.44;6160821;23;20154;-91
2024/01/13 16:08:57;;;;;;;31.67;12.17;;;;;;;5.87;40.65;99265.38;6160927;23;20155;-90
2024/01/13 16:11:25;;;;;;;23.90;10.80;;;;;;;5.74;41.34;99271.81;6186749;23;20161;-90
2024/01/13 16:13:58;;;;;;;19.23;10.90;;;;;;;5.68;41.25;99270.25;6187159;23;20151;-90
2024/01/13 16:16:26;;;;;;;27.60;12.43;;;;;;;5.67;41.38;99272.88;6160617;23;20154;-90
2024/01/13 16:18:52;;;;;;;31.57;16.80;;;;;;;5.58;41.93;99279.25;6160704;23;20186;-89
2024/01/13 16:21:17;;;;;;;33.57;14.77;;;;;;;5.48;42.21;99273.44;6186790;23;20150;-89
2024/01/13 16:23:43;;;;;;;44.07;18.40;;;;;;;5.40;42.08;99265.03;6186301;23;20602;-90
2024/01/13 16:26:10;;;;;;;42.60;18.73;;;;;;;5.17;42.70;99270.03;6186532;23;20146;-89
2024/01/13 16:28:35;;;;;;;36.30;15.87;;;;;;;5.21;43.28;99276.03;6186563;23;20216;-89
2024/01/13 16:31:00;;;;;;;44.57;19.97;;;;;;;5.24;42.93;99268.97;6186626;23;20162;-89
2024/01/13 16:33:29;;;;;;;51.27;22.10;;;;;;;5.20;43.38;99262.16;6186951;23;20161;-89
2024/01/13 16:35:54;;;;;;;41.97;19.23;;;;;;;5.29;43.21;99261.06;6160971;23;20224;-89
2024/01/13 16:38:21;;;;;;;39.97;16.97;;;;;;;5.31;43.33;99262.72;6187156;23;20237;-89
2024/01/13 16:40:47;;;;;;;62.93;21.63;;;;;;;5.16;43.70;99260.56;6186430;23;20154;-89
2024/01/13 16:43:13;;;;;;;65.13;21.80;;;;;;;5.09;44.45;99247.78;6186514;23;20189;-89
2024/01/13 16:45:39;;;;;;;57.83;20.40;;;;;;;5.17;43.84;99245.81;6186435;23;20146;-89
2024/01/13 16:48:05;;;;;;;49.77;18.87;;;;;;;5.32;43.54;99245.38;6186051;23;20217;-89
2024/01/13 16:50:31;;;;;;;43.50;18.63;;;;;;;5.43;43.40;99254.53;6186277;23;20574;-89
2024/01/13 16:52:56;;;;;;;39.20;15.43;;;;;;;5.26;44.00;99245.56;6160729;23;20214;-89
2024/01/13 16:55:22;;;;;;;45.30;19.20;;;;;;;5.17;43.77;99246.66;6186665;23;20480;-89
2024/01/13 16:57:47;;;;;;;38.77;15.60;;;;;;;5.08;44.04;99239.16;6186443;23;20170;-89
2024/01/13 17:00:13;;;;;;;32.23;13.40;;;;;;;4.82;44.63;99239.03;6186324;23;20178;-89
2024/01/13 17:02:39;;;;;;;36.93;14.47;;;;;;;4.66;45.48;99236.00;6186217;23;20149;-89
2024/01/13 17:05:05;;;;;;;33.87;12.90;;;;;;;4.81;44.95;99239.91;6186499;23;20157;-88
2024/01/13 17:07:30;;;;;;;32.87;12.63;;;;;;;4.97;44.21;99249.00;6185970;23;20139;-89
2024/01/13 17:09:56;;;;;;;32.80;13.10;;;;;;;5.05;44.50;99241.84;6186221;23;20161;-89
2024/01/13 17:12:21;;;;;;;28.00;12.47;;;;;;;5.03;44.18;99258.34;6186357;23;20152;-89
2024/01/13 17:14:47;;;;;;;35.37;12.30;;;;;;;4.78;44.30;99253.84;6185785;23;20151;-89
2024/01/13 17:17:12;;;;;;;25.47;12.17;;;;;;;4.66;44.84;99251.59;6186037;23;20151;-88
2024/01/13 17:19:38;;;;;;;26.63;11.23;;;;;;;4.64;44.79;99257.72;6160016;23;20178;-89
2024/01/13 17:22:04;;;;;;;26.50;11.33;;;;;;;4.82;44.48;99259.81;6186106;23;20210;-89
2024/01/13 17:24:29;;;;;;;22.30;10.37;;;;;;;4.98;44.12;99274.06;6185907;23;20161;-88
2024/01/13 17:26:55;;;;;;;31.27;12.73;;;;;;;4.89;44.11;99269.13;6185685;23;20166;-88
2024/01/13 17:29:20;;;;;;;35.53;17.87;;;;;;;4.77;44.05;99272.06;6184584;23;20166;-88
2024/01/13 17:31:46;;;;;;;28.57;13.40;;;;;;;4.77;43.85;99270.31;6184667;23;20146;-88
2024/01/13 17:34:11;;;;;;;31.13;13.33;;;;;;;4.57;44.93;99269.13;6158623;23;20169;-88
2024/01/13 17:36:37;;;;;;;36.83;14.20;;;;;;;4.41;44.94;99273.88;6158724;23;20232;-88
2024/01/13 17:39:03;;;;;;;36.40;15.43;;;;;;;4.38;45.04;99273.13;6184418;23;20201;-88
2024/01/13 17:41:28;;;;;;;35.93;11.00;;;;;;;4.35;45.08;99277.47;6184185;23;20146;-88
2024/01/13 17:43:54;;;;;;;38.77;12.20;;;;;;;4.32;44.90;99271.53;6184457;23;20152;-88
2024/01/13 17:46:20;;;;;;;26.33;11.43;;;;;;;4.42;44.89;99283.38;6184474;23;20559;-88
2024/01/13 17:48:45;;;;;;;23.73;10.70;;;;;;;4.44;44.74;99278.13;6184334;23;20150;-88
2024/01/13 17:51:11;;;;;;;23.77;11.13;;;;;;;4.30;45.26;99271.53;6184575;23;20225;-88
2024/01/13 17:53:36;;;;;;;21.33;10.77;;;;;;;4.13;45.92;99284.09;6184644;23;20152;-88
2024/01/13 17:56:02;;;;;;;30.93;12.43;;;;;;;4.05;46.01;99285.16;6184849;23;20161;-88
2024/01/13 17:58:27;;;;;;;28.67;12.00;;;;;;;4.10;45.93;99286.75;6184026;23;20608;-88
2024/01/13 18:00:53;;;;;;;33.63;13.17;;;;;;;4.18;45.80;99290.03;6184414;23;20148;-88
2024/01/13 18:03:19;;;;;;;31.57;14.70;;;;;;;4.11;45.72;99291.06;6184488;23;20148;-89
2024/01/13 18:05:45;;;;;;;60.03;25.53;;;;;;;4.08;46.19;99298.06;6185128;23;20150;-88
2024/01/13 18:08:10;;;;;;;78.67;26.00;;;;;;;4.14;45.98;99303.94;6184460;23;20172;-89
2024/01/13 18:10:36;;;;;;;66.57;25.03;;;;;;;4.23;46.10;99301.13;6185118;23;20555;-88
2024/01/13 18:13:02;;;;;;;60.17;24.43;;;;;;;4.30;46.54;99307.88;6185083;23;20181;-89
2024/01/13 18:15:28;;;;;;;66.03;21.87;;;;;;;4.21;46.11;99315.03;6184414;23;20174;-89
2024/01/13 18:17:56;;;;;;;62.27;24.90;;;;;;;4.15;46.45;99318.63;6183544;23;20609;-88
2024/01/13 18:20:22;;;;;;;56.73;25.60;;;;;;;4.00;46.68;99307.75;6184243;23;20156;-88
2024/01/13 18:22:47;;;;;;;50.07;21.20;;;;;;;3.84;47.14;99306.41;6184258;23;20621;-88
2024/01/13 18:25:13;;;;;;;44.07;18.87;;;;;;;3.69;47.63;99308.44;6184986;23;20150;-88
2024/01/13 18:28:44;;;;;;;44.90;15.73;;;;;;;3.60;47.98;99302.63;5131547;27;21113;-87
2024/01/13 18:31:10;;;;;;;30.83;13.03;;;;;;;3.42;48.34;99297.84;5109874;28;20191;-88
2024/01/13 18:33:35;;;;;;;30.50;14.07;;;;;;;3.39;48.38;99292.72;5111467;28;20571;-87
2024/01/13 18:36:01;;;;;;;32.70;13.37;;;;;;;3.52;47.66;99292.44;5104894;28;20220;-87
2024/01/13 18:38:26;;;;;;;40.17;16.50;;;;;;;3.61;46.93;99283.59;5131321;28;20194;-88
2024/01/13 18:40:52;;;;;;;34.50;14.83;;;;;;;3.69;47.05;99286.88;5131545;28;20248;-88
2024/01/13 18:43:17;;;;;;;24.93;12.33;;;;;;;3.64;46.94;99281.78;5112835;28;20628;-88
2024/01/13 18:45:45;;;;;;;30.40;13.00;;;;;;;3.64;47.43;99289.56;5131156;28;20175;-87
2024/01/13 18:48:10;;;;;;;28.53;11.63;;;;;;;3.62;47.14;99285.28;5112698;28;20194;-88
2024/01/13 18:50:36;;;;;;;26.30;11.93;;;;;;;3.57;47.07;99284.53;5131361;28;20616;-87
2024/01/13 18:53:01;;;;;;;23.90;10.50;;;;;;;3.50;47.65;99290.75;5113504;28;20613;-87
2024/01/13 18:55:27;;;;;;;26.83;13.20;;;;;;;3.39;47.49;99283.22;5113151;28;20179;-88
2024/01/13 18:57:52;;;;;;;39.47;16.60;;;;;;;3.38;47.86;99280.69;5130925;28;20171;-88
2024/01/13 19:00:20;;;;;;;31.13;14.33;;;;;;;3.39;47.61;99272.00;5130904;28;20576;-88
2024/01/13 19:02:47;;;;;;;39.83;19.23;;;;;;;3.21;48.42;99283.59;5130795;28;20175;-87
2024/01/13 19:05:12;;;;;;;44.27;19.13;;;;;;;3.29;48.25;99288.63;5130822;28;20163;-87
2024/01/13 19:07:37;;;;;;;36.70;17.37;;;;;;;3.38;48.39;99281.50;5130744;28;20202;-88
2024/01/13 19:10:04;;;;;;;39.90;16.23;;;;;;;3.42;48.04;99277.97;5130718;28;20182;-88
2024/01/13 19:12:31;;;;;;;44.33;16.87;;;;;;;3.48;48.20;99288.22;5130329;28;20167;-88
2024/01/13 19:14:57;;;;;;;31.67;13.97;;;;;;;3.48;47.68;99292.53;5130667;28;20250;-88
2024/01/13 19:17:22;;;;;;;27.53;11.90;;;;;;;3.46;47.45;99287.38;5130584;28;20179;-88
2024/01/13 19:19:48;;;;;;;28.30;12.83;;;;;;;3.53;47.42;99285.50;5130314;28;20624;-87
2024/01/13 19:22:13;;;;;;;25.40;10.57;;;;;;;3.61;47.26;99291.38;5130756;28;20632;-88
2024/01/13 19:24:38;;;;;;;24.80;10.57;;;;;;;3.65;46.87;99286.09;5130322;28;20591;-87
2024/01/13 19:27:05;;;;;;;25.80;11.83;;;;;;;3.49;47.00;99289.91;5098638;28;20231;-87
2024/01/13 19:29:30;;;;;;;35.63;13.37;;;;;;;3.31;47.70;99292.88;5127260;28;20635;-88
2024/01/13 19:31:56;;;;;;;34.43;16.07;;;;;;;3.11;48.40;99300.22;5130280;28;20179;-88
2024/01/13 19:34:21;;;;;;;40.53;18.93;;;;;;;3.03;48.62;99308.16;5130241;28;20266;-88
2024/01/13 19:36:48;;;;;;;76.57;27.23;;;;;;;2.91;49.10;99300.59;5130222;28;20171;-88
2024/01/13 19:39:14;;;;;;;70.33;31.33;;;;;;;2.81;49.29;99306.84;5121380;28;20172;-88
2024/01/13 19:41:40;;;;;;;75.47;33.40;;;;;;;2.76;49.73;99300.91;5116661;28;20637;-88
2024/01/13 19:44:05;;;;;;;77.93;31.13;;;;;;;2.81;49.44;99298.22;5116282;28;20266;-87
2024/01/13 19:46:31;;;;;;;66.67;29.90;;;;;;;2.93;49.37;99292.81;5116220;28;20210;-88
2024/01/13 19:48:58;;;;;;;81.87;32.80;;;;;;;2.99;49.63;99290.94;5098484;28;20184;-87
2024/01/13 19:51:23;;;;;;;64.07;25.83;;;;;;;3.02;49.45;99283.13;5098007;28;20183;-87
2024/01/13 19:53:49;;;;;;;58.97;24.27;;;;;;;3.04;49.09;99276.16;5098227;28;20265;-88
2024/01/13 19:56:14;;;;;;;51.60;22.13;;;;;;;2.95;49.29;99276.38;5116184;28;20561;-88
2024/01/13 19:58:39;;;;;;;57.13;23.03;;;;;;;2.88;49.42;99277.34;5116079;28;20187;-87
2024/01/13 20:01:07;;;;;;;48.93;19.53;;;;;;;2.71;50.57;99271.66;5107544;28;20305;-87
2024/01/13 20:03:33;;;;;;;57.17;23.90;;;;;;;2.66;50.83;99273.50;5095455;28;20199;-88
2024/01/13 20:05:58;;;;;;;48.97;22.73;;;;;;;2.81;50.03;99273.19;5077691;28;20625;-88
2024/01/13 20:08:26;;;;;;;57.70;23.53;;;;;;;2.90;49.88;99275.63;5083933;28;20198;-88
2024/01/13 20:10:51;;;;;;;59.50;25.93;;;;;;;2.91;50.21;99284.22;5115338;28;20180;-87
2024/01/13 20:13:17;;;;;;;62.10;26.60;;;;;;;2.91;49.78;99290.25;5097899;28;20557;-87
2024/01/13 20:15:42;;;;;;;56.33;25.40;;;;;;;2.72;50.74;99277.69;5115657;28;20183;-87
2024/01/13 20:18:08;;;;;;;59.77;28.20;;;;;;;2.66;50.98;99281.25;5097532;28;20263;-87
2024/01/13 20:20:33;;;;;;;64.67;26.47;;;;;;;2.60;50.65;99283.94;5115630;28;20180;-87
2024/01/13 20:22:58;;;;;;;61.50;26.33;;;;;;;2.50;51.25;99285.00;5097839;28;20191;-87
2024/01/13 20:25:24;;;;;;;65.23;27.47;;;;;;;2.49;51.32;99281.53;5097900;28;20186;-88
2024/01/13 20:27:49;;;;;;;65.87;26.77;;;;;;;2.47;51.32;99291.06;5115313;28;20203;-88
2024/01/13 20:30:15;;;;;;;68.83;27.53;;;;;;;2.58;50.77;99285.72;5115215;28;20179;-87
2024/01/13 20:32:41;;;;;;;81.13;33.97;;;;;;;2.66;50.54;99283.84;5115381;28;20172;-87
2024/01/13 20:35:06;;;;;;;84.13;32.80;;;;;;;2.48;50.87;99289.34;5114900;28;20193;-87
2024/01/13 20:37:32;;;;;;;53.83;23.90;;;;;;;2.39;51.22;99287.78;5097365;28;20175;-88
2024/01/13 20:39:58;;;;;;;37.87;16.63;;;;;;;2.34;51.16;99283.56;5097044;28;20190;-87
2024/01/13 20:42:24;;;;;;;46.20;18.50;;;;;;;2.30;51.23;99281.91;5097574;28;20275;-88
2024/01/13 20:44:50;;;;;;;45.73;19.47;;;;;;;2.45;51.59;99281.63;5115170;28;20171;-87
2024/01/13 20:47:15;;;;;;;44.80;17.47;;;;;;;2.43;50.81;99280.81;5097169;28;20206;-88
2024/01/13 20:49:44;;;;;;;48.40;18.73;;;;;;;2.32;50.79;99275.84;5114971;28;20167;-87
2024/01/13 20:52:10;;;;;;;46.93;17.90;;;;;;;2.36;51.37;99276.63;5114363;28;20190;-88
2024/01/13 20:54:39;;;;;;;43.13;17.53;;;;;;;2.28;51.42;99276.75;5114814;28;20183;-87
2024/01/13 20:57:06;;;;;;;45.77;20.37;;;;;;;1.53;52.35;99278.81;5096965;28;20176;-87
2024/01/13 20:59:32;;;;;;;57.30;23.37;;;;;;;1.43;53.53;99282.41;5114585;28;20226;-87
2024/01/13 21:01:57;;;;;;;46.83;21.17;;;;;;;1.59;53.40;99281.31;5097308;28;20613;-87
2024/01/13 21:04:23;;;;;;;45.00;18.67;;;;;;;1.63;53.10;99290.72;5114773;28;20179;-87
2024/01/13 21:06:48;;;;;;;51.20;21.07;;;;;;;1.73;53.02;99287.13;5097235;28;20204;-88
2024/01/13 21:09:14;;;;;;;44.50;18.83;;;;;;;1.73;52.64;99283.72;5114635;28;20188;-87
2024/01/13 21:11:40;;;;;;;67.23;28.57;;;;;;;1.89;52.06;99274.00;5114559;28;20617;-88
2024/01/13 21:14:05;;;;;;;60.77;24.47;;;;;;;1.81;52.50;99274.94;5094231;28;20172;-87
2024/01/13 21:16:31;;;;;;;47.00;18.57;;;;;;;1.69;52.63;99279.44;5095248;28;20538;-87
2024/01/13 21:18:57;;;;;;;58.80;24.10;;;;;;;1.73;52.39;99279.38;5114774;28;20179;-87
2024/01/13 21:21:22;;;;;;;48.23;18.90;;;;;;;1.67;52.74;99281.19;5096524;28;20241;-87
2024/01/13 21:23:48;;;;;;;39.97;19.70;;;;;;;1.67;52.94;99284.66;5114093;28;20191;-86
2024/01/13 21:26:13;;;;;;;41.10;18.40;;;;;;;1.50;53.73;99278.00;5096297;28;20574;-87
2024/01/13 21:28:39;;;;;;;58.63;20.50;;;;;;;1.52;53.52;99287.44;5114165;28;20664;-87
2024/01/13 21:31:05;;;;;;;45.37;18.27;;;;;;;1.62;53.80;99283.88;5114245;28;20361;-87
2024/01/13 21:33:33;;;;;;;34.70;17.30;;;;;;;1.59;52.97;99276.16;5114248;28;20183;-87
2024/01/13 21:35:59;;;;;;;36.17;14.90;;;;;;;1.52;53.68;99265.94;5114745;28;20184;-87
2024/01/13 21:38:27;;;;;;;45.33;20.63;;;;;;;1.50;53.86;99267.66;5114125;28;20596;-87
2024/01/13 21:40:52;;;;;;;43.30;18.30;;;;;;;1.42;53.85;99272.94;5096490;28;20183;-87
2024/01/13 21:43:17;;;;;;;46.27;20.27;;;;;;;1.38;54.84;99273.88;5096454;28;20182;-88
2024/01/13 21:45:44;;;;;;;42.10;17.83;;;;;;;1.52;54.63;99279.69;5096068;28;20251;-87
2024/01/13 21:48:10;;;;;;;42.97;17.53;;;;;;;1.62;53.44;99278.69;5096221;28;20199;-87
2024/01/13 21:50:35;;;;;;;40.33;18.67;;;;;;;1.58;53.87;99284.75;5113710;28;20643;-87
2024/01/13 21:53:01;;;;;;;39.83;17.63;;;;;;;1.52;53.78;99274.50;5113651;28;20288;-88
2024/01/13 21:55:26;;;;;;;37.43;18.27;;;;;;;1.37;54.46;99272.16;5113870;28;20180;-87
2024/01/13 21:57:53;;;;;;;49.00;18.63;;;;;;;1.22;54.13;99265.47;5113810;28;20190;-87
2024/01/13 22:00:18;;;;;;;59.10;22.10;;;;;;;1.12;55.16;99265.63;5113423;28;20189;-87
2024/01/13 22:02:44;;;;;;;49.20;19.73;;;;;;;1.18;55.38;99261.22;5113014;28;20417;-87
2024/01/13 22:05:12;;;;;;;50.90;18.43;;;;;;;1.18;55.20;99265.50;5095801;28;20217;-87
2024/01/13 22:07:37;;;;;;;38.40;15.57;;;;;;;1.25;54.79;99262.00;5095676;28;20305;-87
2024/01/13 22:10:03;;;;;;;30.47;13.90;;;;;;;1.20;55.41;99262.06;5113856;28;20668;-87
2024/01/13 22:12:31;;;;;;;28.87;12.80;;;;;;;1.12;55.27;99260.44;5113897;28;20176;-87
2024/01/13 22:14:57;;;;;;;39.30;12.70;;;;;;;1.03;56.37;99260.56;5095540;28;20179;-87
2024/01/13 22:17:22;;;;;;;28.47;11.50;;;;;;;1.11;55.80;99256.16;5113837;28;20163;-87
2024/01/13 22:19:49;;;;;;;31.90;11.77;;;;;;;1.27;55.96;99255.06;5113053;28;20655;-88
2024/01/13 22:22:15;;;;;;;26.70;11.60;;;;;;;1.08;55.87;99253.59;5113477;28;20203;-87
2024/01/13 22:24:40;;;;;;;17.07;8.00;;;;;;;1.03;56.36;99260.56;5113314;28;20453;-87
2024/01/13 22:27:06;;;;;;;25.87;10.10;;;;;;;1.04;56.57;99255.38;5113154;28;20245;-87
2024/01/13 22:29:31;;;;;;;27.30;10.03;;;;;;;1.14;56.45;99253.53;5113717;28;20172;-87
2024/01/13 22:31:57;;;;;;;23.43;10.77;;;;;;;1.25;55.38;99251.66;5095321;28;20268;-87
2024/01/13 22:34:22;;;;;;;26.27;10.50;;;;;;;1.25;55.61;99246.50;5113440;28;20214;-87
2024/01/13 22:36:48;;;;;;;19.50;9.03;;;;;;;1.06;55.88;99250.19;5113494;28;20175;-87
2024/01/13 22:39:14;;;;;;;21.23;8.43;;;;;;;1.04;55.83;99242.50;5113384;28;20175;-87
2024/01/13 22:41:39;;;;;;;19.83;7.63;;;;;;;0.89;56.81;99241.81;5112772;28;20186;-87
2024/01/13 22:44:05;;;;;;;22.13;8.60;;;;;;;0.80;57.25;99231.59;5113295;28;20565;-87
2024/01/13 22:46:32;;;;;;;22.33;7.57;;;;;;;0.99;57.70;99228.78;5095582;28;20178;-87
2024/01/13 22:48:57;;;;;;;20.40;8.07;;;;;;;0.90;57.49;99215.13;5095096;28;20259;-87
2024/01/13 22:51:23;;;;;;;18.57;8.17;;;;;;;1.01;57.27;99216.72;5113225;28;20794;-88
2024/01/13 22:53:48;;;;;;;22.57;7.97;;;;;;;1.13;56.55;99218.25;5113766;28;20190;-87
2024/01/13 22:56:14;;;;;;;18.67;8.30;;;;;;;1.13;56.48;99224.28;5113361;28;20195;-88
2024/01/13 22:58:39;;;;;;;20.10;8.03;;;;;;;1.10;56.72;99220.91;5113213;28;20679;-87
2024/01/13 23:01:04;;;;;;;20.43;9.63;;;;;;;0.88;57.00;99209.16;5112775;28;20195;-87
2024/01/13 23:03:31;;;;;;;15.40;6.40;;;;;;;0.99;56.79;99212.44;5095522;28;20713;-87
2024/01/13 23:05:56;;;;;;;20.83;8.57;;;;;;;1.05;56.39;99214.94;5095738;28;20613;-88
2024/01/13 23:08:22;;;;;;;21.67;8.23;;;;;;;1.03;56.68;99211.53;5095217;28;20464;-88
2024/01/13 23:10:48;;;;;;;18.73;7.73;;;;;;;0.87;56.89;99212.59;5095146;28;20191;-87
2024/01/13 23:13:14;;;;;;;20.23;8.80;;;;;;;0.83;56.98;99205.78;5113211;28;20269;-87
2024/01/13 23:15:41;;;;;;;20.67;8.53;;;;;;;0.80;57.55;99210.97;5116935;28;20413;-87
2024/01/13 23:18:11;;;;;;;19.60;8.17;;;;;;;0.87;57.37;99207.41;5116881;28;20874;-87
2024/01/13 23:20:44;;;;;;;21.93;9.47;;;;;;;0.93;57.06;99207.34;5116709;28;20436;-87
2024/01/13 23:23:12;;;;;;;18.43;9.23;;;;;;;0.79;57.19;99197.22;5116822;28;20398;-88
2024/01/13 23:25:38;;;;;;;17.50;7.10;;;;;;;0.87;57.48;99195.38;5116546;28;20419;-87
2024/01/13 23:28:05;;;;;;;19.00;8.77;;;;;;;0.85;56.74;99185.97;5132786;27;20855;-87
2024/01/13 23:30:30;;;;;;;17.97;7.43;;;;;;;0.86;56.71;99191.13;5116252;28;20176;-87
2024/01/13 23:32:56;;;;;;;14.03;6.90;;;;;;;0.81;56.75;99187.75;5116595;28;20182;-87
2024/01/13 23:35:21;;;;;;;20.97;9.57;;;;;;;0.83;57.25;99183.41;5116750;28;20581;-88
2024/01/13 23:37:51;;;;;;;24.70;9.73;;;;;;;0.85;56.77;99184.25;5116475;28;20175;-87
2024/01/13 23:40:17;;;;;;;23.17;10.73;;;;;;;0.81;56.59;99185.16;5116433;28;20595;-87
2024/01/13 23:42:43;;;;;;;23.43;9.33;;;;;;;0.85;57.26;99189.41;5116251;28;20388;-87
2024/01/13 23:45:13;;;;;;;22.43;9.70;;;;;;;0.77;57.01;99175.75;5116410;28;20783;-87
2024/01/13 23:47:39;;;;;;;23.57;9.67;;;;;;;0.80;56.89;99180.00;5116229;28;20453;-88
2024/01/13 23:50:09;;;;;;;23.10;10.53;;;;;;;0.81;56.66;99171.41;5116229;28;20191;-88